Details From EBCI - Brussels South - Charleroi
To EBOS - Oostende
Flight Number -
Tags generated
Created
Modified
Stats Distance 75 nm / 138 km
Max Altitude 4,500 ft / 1,372 m
Waypoints 3
Social Downloads 0
Likes 0
Share VATSIM

Download

Looking for another format? Having issues loading an existing format? Contact us
Advertisement - Login to hide

Notes

Basic altitude profile: - Ascent Rate: 700ft/min - Ascent Speed: 80kts - Cruise Altitude: 4500ft - Cruise Speed: 120kts - Descent Rate: 700ft/min - Descent Speed: 100kts

Route

EBCI SISGA EBOS

ID Type Via Altitude Latitude Longitude Leg Dist Tot Dist Heading (true) Name
O EBCI APT - 0 ft / 0 m 50.45995˚ 4.45312˚ - 0 nm - Brussels South - Charleroi
SISGA FIX - 4,500 ft / 1,372 m 50.61797˚ 4.05657˚ 17 nm 17 nm 302° / 302° -
O EBOS APT - 0 ft / 0 m 51.19997˚ 2.87501˚ 56 nm 74 nm 308° / 308° Oostende

Altitude Profile

Advertisement - Login to hide

EBCI

Details ICAO EBCI (CRL)
Name Brussels South - Charleroi
Region Belgium
Timezone Europe/Brussels (UTC+1.0)
Stats Elevation 614 ft / 187 m (AMSL)
Location 50.459947° 4.453125°
Runways 1
Magnetic Variation 1.134° E

METAR

EBCI 160320Z 29003KT 250V340 1100 R25/P2000N BR BKN001 BKN024 02/01 Q1007 NOSIG

Decode

TAF

TAF AMD EBCI 160034Z 1600/1706 29005KT 6000 SCT004 BKN008 TEMPO 1600/1603 1200 BCFG BKN002 PROB40 TEMPO 1603/1620 3000 SHRASN BKN004 SCT014CB

Decode

Departure Runways

ID Width Length Bearing (true) Bearing (mag) Surface Threshold Offset Overrun Length
07 148 ft / 45 m 8,374 ft / 2,552 m 65.53° 64.40° Asphalt 1,476 ft / 450 m 0 ft / 0 m
25 148 ft / 45 m 8,374 ft / 2,552 m 245.55° 244.42° Asphalt 0 ft / 0 m 0 ft / 0 m

EBOS

Details ICAO EBOS (OST)
Name Oostende
Region Belgium
Timezone Europe/Brussels (UTC+1.0)
Stats Elevation 13 ft / 4 m (AMSL)
Location 51.199967° 2.875008°
Runways 1
Magnetic Variation 0.589° E

METAR

EBOS 160320Z 34011KT 300V020 9000 -SHRA SCT022 SCT030 06/03 Q1009 TEMPO 3000 SHRAGS BKN009 BKN014CB

Decode

TAF

TAF EBOS 152307Z 1600/1706 34014KT 9999 SCT015TCU SCT040 TEMPO 1600/1617 4000 SHRAGS BKN008 SCT015CB

Decode

Destination Runways

ID Width Length Bearing (true) Bearing (mag) Surface Threshold Offset Overrun Length
08 148 ft / 45 m 10,515 ft / 3,205 m 76.36° 75.77° Asphalt 984 ft / 300 m 0 ft / 0 m
26 148 ft / 45 m 10,515 ft / 3,205 m 256.39° 255.80° Asphalt 1,362 ft / 415 m 0 ft / 0 m

Approach Navaids

Runway Type Ident Frequency Range Bearing (true) Bearing (mag) Slope Elevation
08 Localiser IMI 111.55 MHz 18 nm / 33 km 76.37° 75.78° - 13 ft / 4 m (AMSL)
08 Glidescope IMI 111.55 MHz 10 nm / 19 km 76.37° 75.78° 3.00° 13 ft / 4 m (AMSL)
08 DME IMI 111.55 MHz 18 nm / 33 km - - - 13 ft / 4 m (AMSL)
26 Localiser IOS 109.50 MHz 18 nm / 33 km 256.37° 255.78° - 13 ft / 4 m (AMSL)
26 Glidescope IOS 109.50 MHz 10 nm / 19 km 256.37° 255.78° 3.00° 13 ft / 4 m (AMSL)

Popular Alternatives